sensor_id;sensor_type;location;lat;lon;timestamp;P1;durP1;ratioP1;P2;durP2;ratioP2
67675;SDS011;54456;48.436;10.028;2023-12-07T00:01:21;15.27;;;5.13;;
67675;SDS011;54456;48.436;10.028;2023-12-07T00:02:51;14.30;;;5.13;;
67675;SDS011;54456;48.436;10.028;2023-12-07T00:04:22;13.77;;;5.00;;
67675;SDS011;54456;48.436;10.028;2023-12-07T00:05:52;14.25;;;4.50;;
67675;SDS011;54456;48.436;10.028;2023-12-07T00:07:23;12.95;;;5.05;;
67675;SDS011;54456;48.436;10.028;2023-12-07T00:08:53;15.68;;;4.95;;
67675;SDS011;54456;48.436;10.028;2023-12-07T00:10:23;13.23;;;4.60;;
67675;SDS011;54456;48.436;10.028;2023-12-07T00:11:54;14.00;;;5.23;;
67675;SDS011;54456;48.436;10.028;2023-12-07T00:13:24;15.67;;;5.57;;
67675;SDS011;54456;48.436;10.028;2023-12-07T00:14:54;13.20;;;5.00;;
67675;SDS011;54456;48.436;10.028;2023-12-07T00:16:25;14.13;;;5.10;;
67675;SDS011;54456;48.436;10.028;2023-12-07T00:17:55;14.23;;;5.13;;
67675;SDS011;54456;48.436;10.028;2023-12-07T00:19:25;15.07;;;5.37;;
67675;SDS011;54456;48.436;10.028;2023-12-07T00:20:55;13.73;;;5.10;;
67675;SDS011;54456;48.436;10.028;2023-12-07T00:22:26;16.90;;;4.77;;
67675;SDS011;54456;48.436;10.028;2023-12-07T00:23:58;14.93;;;4.55;;
67675;SDS011;54456;48.436;10.028;2023-12-07T00:25:28;15.65;;;4.40;;
67675;SDS011;54456;48.436;10.028;2023-12-07T00:26:59;18.03;;;6.07;;
67675;SDS011;54456;48.436;10.028;2023-12-07T00:28:29;14.10;;;4.83;;
67675;SDS011;54456;48.436;10.028;2023-12-07T00:30:00;17.48;;;5.07;;
67675;SDS011;54456;48.436;10.028;2023-12-07T04:16:40;24.58;;;8.40;;
67675;SDS011;54456;48.436;10.028;2023-12-07T04:18:10;24.80;;;7.78;;
67675;SDS011;54456;48.436;10.028;2023-12-07T04:19:41;21.92;;;6.82;;
67675;SDS011;54456;48.436;10.028;2023-12-07T04:21:11;22.05;;;7.50;;
67675;SDS011;54456;48.436;10.028;2023-12-07T04:22:41;22.30;;;7.07;;
67675;SDS011;54456;48.436;10.028;2023-12-07T04:24:14;18.85;;;6.45;;
67675;SDS011;54456;48.436;10.028;2023-12-07T04:25:44;20.30;;;6.37;;
67675;SDS011;54456;48.436;10.028;2023-12-07T04:27:15;18.60;;;6.53;;
67675;SDS011;54456;48.436;10.028;2023-12-07T04:28:45;18.77;;;6.60;;
67675;SDS011;54456;48.436;10.028;2023-12-07T04:30:15;23.15;;;6.45;;
67675;SDS011;54456;48.436;10.028;2023-12-07T04:31:46;14.23;;;5.50;;
67675;SDS011;54456;48.436;10.028;2023-12-07T04:33:16;23.48;;;6.82;;
67675;SDS011;54456;48.436;10.028;2023-12-07T04:34:47;18.23;;;5.70;;
67675;SDS011;54456;48.436;10.028;2023-12-07T04:36:17;17.83;;;5.93;;
67675;SDS011;54456;48.436;10.028;2023-12-07T04:37:47;16.27;;;5.70;;
67675;SDS011;54456;48.436;10.028;2023-12-07T04:39:18;16.55;;;5.60;;
67675;SDS011;54456;48.436;10.028;2023-12-07T04:40:48;17.48;;;5.88;;
67675;SDS011;54456;48.436;10.028;2023-12-07T04:42:19;18.73;;;6.50;;
67675;SDS011;54456;48.436;10.028;2023-12-07T04:43:50;17.13;;;5.55;;
67675;SDS011;54456;48.436;10.028;2023-12-07T04:45:20;17.70;;;5.88;;
67675;SDS011;54456;48.436;10.028;2023-12-07T04:46:51;16.48;;;5.70;;
67675;SDS011;54456;48.436;10.028;2023-12-07T04:48:21;19.70;;;6.18;;
67675;SDS011;54456;48.436;10.028;2023-12-07T04:49:52;15.60;;;5.68;;
67675;SDS011;54456;48.436;10.028;2023-12-07T04:51:22;15.10;;;6.53;;
67675;SDS011;54456;48.436;10.028;2023-12-07T04:52:52;18.00;;;5.93;;
67675;SDS011;54456;48.436;10.028;2023-12-07T04:54:24;20.70;;;5.53;;
67675;SDS011;54456;48.436;10.028;2023-12-07T04:55:56;13.90;;;5.20;;
67675;SDS011;54456;48.436;10.028;2023-12-07T04:57:26;17.25;;;5.35;;
67675;SDS011;54456;48.436;10.028;2023-12-07T04:58:57;19.00;;;6.55;;
67675;SDS011;54456;48.436;10.028;2023-12-07T05:00:28;16.35;;;6.03;;
67675;SDS011;54456;48.436;10.028;2023-12-07T05:01:58;16.00;;;5.50;;
67675;SDS011;54456;48.436;10.028;2023-12-07T05:03:28;20.97;;;7.80;;
67675;SDS011;54456;48.436;10.028;2023-12-07T05:04:59;17.45;;;6.55;;
67675;SDS011;54456;48.436;10.028;2023-12-07T05:06:30;18.27;;;6.60;;
67675;SDS011;54456;48.436;10.028;2023-12-07T05:08:01;19.10;;;5.82;;
67675;SDS011;54456;48.436;10.028;2023-12-07T05:09:31;19.00;;;5.67;;
67675;SDS011;54456;48.436;10.028;2023-12-07T05:11:01;17.47;;;5.60;;
67675;SDS011;54456;48.436;10.028;2023-12-07T05:12:32;17.73;;;6.53;;
67675;SDS011;54456;48.436;10.028;2023-12-07T05:14:02;18.27;;;5.82;;
67675;SDS011;54456;48.436;10.028;2023-12-07T05:15:33;15.77;;;5.60;;
67675;SDS011;54456;48.436;10.028;2023-12-07T05:17:04;16.20;;;5.80;;
67675;SDS011;54456;48.436;10.028;2023-12-07T05:18:35;15.65;;;5.45;;
67675;SDS011;54456;48.436;10.028;2023-12-07T05:20:05;18.67;;;5.93;;
67675;SDS011;54456;48.436;10.028;2023-12-07T05:21:37;14.75;;;5.47;;
67675;SDS011;54456;48.436;10.028;2023-12-07T05:23:07;16.52;;;5.72;;
67675;SDS011;54456;48.436;10.028;2023-12-07T05:24:38;16.60;;;5.67;;
67675;SDS011;54456;48.436;10.028;2023-12-07T05:26:09;19.30;;;5.70;;
67675;SDS011;54456;48.436;10.028;2023-12-07T05:27:40;14.73;;;5.85;;
67675;SDS011;54456;48.436;10.028;2023-12-07T05:29:11;14.30;;;5.00;;
67675;SDS011;54456;48.436;10.028;2023-12-07T05:30:42;11.40;;;4.75;;
67675;SDS011;54456;48.436;10.028;2023-12-07T05:32:12;17.38;;;5.55;;
67675;SDS011;54456;48.436;10.028;2023-12-07T05:33:43;17.83;;;5.30;;
67675;SDS011;54456;48.436;10.028;2023-12-07T05:35:14;19.58;;;5.82;;
67675;SDS011;54456;48.436;10.028;2023-12-07T05:36:44;20.48;;;6.40;;
67675;SDS011;54456;48.436;10.028;2023-12-07T05:38:16;17.40;;;6.32;;
67675;SDS011;54456;48.436;10.028;2023-12-07T05:39:46;17.23;;;6.33;;
67675;SDS011;54456;48.436;10.028;2023-12-07T05:41:16;14.73;;;5.30;;
67675;SDS011;54456;48.436;10.028;2023-12-07T05:42:49;9.93;;;3.53;;
67675;SDS011;54456;48.436;10.028;2023-12-07T05:44:19;14.68;;;5.25;;
67675;SDS011;54456;48.436;10.028;2023-12-07T05:45:52;16.25;;;5.10;;
67675;SDS011;54456;48.436;10.028;2023-12-07T05:47:22;18.63;;;7.13;;
67675;SDS011;54456;48.436;10.028;2023-12-07T05:48:53;16.05;;;5.40;;
67675;SDS011;54456;48.436;10.028;2023-12-07T05:50:23;17.00;;;5.60;;
67675;SDS011;54456;48.436;10.028;2023-12-07T05:51:54;15.37;;;5.63;;
67675;SDS011;54456;48.436;10.028;2023-12-07T05:53:24;21.77;;;6.78;;
67675;SDS011;54456;48.436;10.028;2023-12-07T05:54:54;16.52;;;5.55;;
67675;SDS011;54456;48.436;10.028;2023-12-07T05:56:25;18.80;;;5.97;;
67675;SDS011;54456;48.436;10.028;2023-12-07T05:57:55;14.57;;;5.60;;
67675;SDS011;54456;48.436;10.028;2023-12-07T05:59:25;15.70;;;5.72;;
67675;SDS011;54456;48.436;10.028;2023-12-07T06:00:56;16.40;;;6.20;;
67675;SDS011;54456;48.436;10.028;2023-12-07T06:02:27;18.42;;;6.32;;
67675;SDS011;54456;48.436;10.028;2023-12-07T06:03:58;22.38;;;7.15;;
67675;SDS011;54456;48.436;10.028;2023-12-07T06:05:28;19.30;;;7.10;;
67675;SDS011;54456;48.436;10.028;2023-12-07T06:06:58;17.77;;;6.33;;
67675;SDS011;54456;48.436;10.028;2023-12-07T06:08:29;19.90;;;6.63;;
67675;SDS011;54456;48.436;10.028;2023-12-07T06:09:59;20.20;;;7.13;;
67675;SDS011;54456;48.436;10.028;2023-12-07T06:11:30;17.92;;;6.45;;
67675;SDS011;54456;48.436;10.028;2023-12-07T06:13:01;18.20;;;5.97;;
67675;SDS011;54456;48.436;10.028;2023-12-07T06:14:31;18.45;;;6.95;;
67675;SDS011;54456;48.436;10.028;2023-12-07T06:16:02;20.77;;;7.00;;
67675;SDS011;54456;48.436;10.028;2023-12-07T06:17:33;19.80;;;7.63;;
67675;SDS011;54456;48.436;10.028;2023-12-07T06:19:03;20.95;;;6.50;;
67675;SDS011;54456;48.436;10.028;2023-12-07T06:20:34;22.40;;;7.17;;
67675;SDS011;54456;48.436;10.028;2023-12-07T06:22:05;22.67;;;6.88;;
67675;SDS011;54456;48.436;10.028;2023-12-07T06:23:35;17.70;;;5.55;;
67675;SDS011;54456;48.436;10.028;2023-12-07T06:25:06;20.97;;;6.40;;
67675;SDS011;54456;48.436;10.028;2023-12-07T06:26:38;16.48;;;6.38;;
67675;SDS011;54456;48.436;10.028;2023-12-07T06:28:08;19.07;;;6.37;;
67675;SDS011;54456;48.436;10.028;2023-12-07T06:29:39;20.85;;;7.28;;
67675;SDS011;54456;48.436;10.028;2023-12-07T06:31:10;18.40;;;6.53;;
67675;SDS011;54456;48.436;10.028;2023-12-07T06:32:40;19.58;;;6.70;;
67675;SDS011;54456;48.436;10.028;2023-12-07T06:34:11;22.33;;;6.90;;
67675;SDS011;54456;48.436;10.028;2023-12-07T06:35:41;17.92;;;6.00;;
67675;SDS011;54456;48.436;10.028;2023-12-07T06:37:11;23.10;;;7.37;;
67675;SDS011;54456;48.436;10.028;2023-12-07T06:38:42;18.07;;;6.57;;
67675;SDS011;54456;48.436;10.028;2023-12-07T06:40:12;18.77;;;6.57;;
67675;SDS011;54456;48.436;10.028;2023-12-07T06:41:42;18.53;;;6.77;;
67675;SDS011;54456;48.436;10.028;2023-12-07T06:43:12;18.37;;;6.87;;
67675;SDS011;54456;48.436;10.028;2023-12-07T06:44:47;18.33;;;5.97;;
67675;SDS011;54456;48.436;10.028;2023-12-07T06:46:21;19.52;;;6.80;;
67675;SDS011;54456;48.436;10.028;2023-12-07T06:47:51;20.87;;;7.20;;
67675;SDS011;54456;48.436;10.028;2023-12-07T06:49:21;20.67;;;6.60;;
67675;SDS011;54456;48.436;10.028;2023-12-07T06:50:52;22.80;;;7.18;;
67675;SDS011;54456;48.436;10.028;2023-12-07T06:52:22;17.17;;;7.10;;
67675;SDS011;54456;48.436;10.028;2023-12-07T06:53:52;19.10;;;6.83;;
67675;SDS011;54456;48.436;10.028;2023-12-07T06:55:23;21.53;;;6.57;;
67675;SDS011;54456;48.436;10.028;2023-12-07T06:56:53;16.33;;;6.30;;
67675;SDS011;54456;48.436;10.028;2023-12-07T06:58:24;18.53;;;7.20;;
67675;SDS011;54456;48.436;10.028;2023-12-07T06:59:54;20.20;;;7.47;;
67675;SDS011;54456;48.436;10.028;2023-12-07T07:01:25;18.20;;;6.70;;
67675;SDS011;54456;48.436;10.028;2023-12-07T07:02:55;19.88;;;6.25;;
67675;SDS011;54456;48.436;10.028;2023-12-07T07:04:26;20.20;;;6.53;;
67675;SDS011;54456;48.436;10.028;2023-12-07T07:05:56;15.90;;;5.80;;
67675;SDS011;54456;48.436;10.028;2023-12-07T07:07:26;19.60;;;6.65;;
67675;SDS011;54456;48.436;10.028;2023-12-07T07:08:59;16.63;;;6.38;;
67675;SDS011;54456;48.436;10.028;2023-12-07T07:10:29;16.80;;;6.10;;
67675;SDS011;54456;48.436;10.028;2023-12-07T07:12:01;17.13;;;5.55;;
67675;SDS011;54456;48.436;10.028;2023-12-07T07:13:31;18.67;;;6.80;;
67675;SDS011;54456;48.436;10.028;2023-12-07T07:15:02;15.65;;;5.63;;
67675;SDS011;54456;48.436;10.028;2023-12-07T07:16:33;16.95;;;6.15;;
67675;SDS011;54456;48.436;10.028;2023-12-07T07:18:03;16.03;;;6.00;;
67675;SDS011;54456;48.436;10.028;2023-12-07T07:19:35;17.08;;;5.90;;
67675;SDS011;54456;48.436;10.028;2023-12-07T07:21:06;17.00;;;6.25;;
67675;SDS011;54456;48.436;10.028;2023-12-07T07:22:37;18.85;;;5.57;;
67675;SDS011;54456;48.436;10.028;2023-12-07T07:24:07;18.93;;;6.10;;
67675;SDS011;54456;48.436;10.028;2023-12-07T07:25:37;16.50;;;5.80;;
67675;SDS011;54456;48.436;10.028;2023-12-07T07:27:08;14.25;;;5.78;;
67675;SDS011;54456;48.436;10.028;2023-12-07T07:28:39;19.90;;;6.50;;
67675;SDS011;54456;48.436;10.028;2023-12-07T07:30:09;18.40;;;6.67;;
67675;SDS011;54456;48.436;10.028;2023-12-07T07:31:40;18.00;;;5.88;;
67675;SDS011;54456;48.436;10.028;2023-12-07T07:33:10;18.47;;;6.87;;
67675;SDS011;54456;48.436;10.028;2023-12-07T07:34:41;20.03;;;6.43;;
67675;SDS011;54456;48.436;10.028;2023-12-07T07:36:11;18.27;;;6.27;;
67675;SDS011;54456;48.436;10.028;2023-12-07T07:37:42;20.85;;;7.43;;
67675;SDS011;54456;48.436;10.028;2023-12-07T07:39:13;17.88;;;6.75;;
67675;SDS011;54456;48.436;10.028;2023-12-07T07:40:44;21.40;;;7.35;;
67675;SDS011;54456;48.436;10.028;2023-12-07T07:42:15;21.23;;;6.53;;
67675;SDS011;54456;48.436;10.028;2023-12-07T07:43:46;21.95;;;7.15;;
67675;SDS011;54456;48.436;10.028;2023-12-07T07:45:16;20.10;;;8.13;;
67675;SDS011;54456;48.436;10.028;2023-12-07T07:46:47;20.23;;;7.43;;
67675;SDS011;54456;48.436;10.028;2023-12-07T07:48:17;20.80;;;6.67;;
67675;SDS011;54456;48.436;10.028;2023-12-07T07:49:47;19.70;;;7.00;;
67675;SDS011;54456;48.436;10.028;2023-12-07T07:51:18;21.47;;;8.07;;
67675;SDS011;54456;48.436;10.028;2023-12-07T07:52:48;25.50;;;8.40;;
67675;SDS011;54456;48.436;10.028;2023-12-07T07:54:18;23.77;;;8.03;;
67675;SDS011;54456;48.436;10.028;2023-12-07T07:55:49;20.30;;;7.45;;
67675;SDS011;54456;48.436;10.028;2023-12-07T07:57:19;28.13;;;10.23;;
67675;SDS011;54456;48.436;10.028;2023-12-07T07:58:49;23.73;;;8.97;;
67675;SDS011;54456;48.436;10.028;2023-12-07T08:00:20;26.67;;;10.87;;
67675;SDS011;54456;48.436;10.028;2023-12-07T08:01:51;27.00;;;10.43;;
67675;SDS011;54456;48.436;10.028;2023-12-07T08:03:21;27.00;;;9.27;;
67675;SDS011;54456;48.436;10.028;2023-12-07T08:04:51;24.90;;;9.85;;
67675;SDS011;54456;48.436;10.028;2023-12-07T08:06:22;31.47;;;11.03;;
67675;SDS011;54456;48.436;10.028;2023-12-07T08:07:52;36.67;;;13.83;;
67675;SDS011;54456;48.436;10.028;2023-12-07T08:09:22;27.47;;;9.37;;
67675;SDS011;54456;48.436;10.028;2023-12-07T08:10:53;25.63;;;9.13;;
67675;SDS011;54456;48.436;10.028;2023-12-07T08:12:23;23.08;;;8.27;;
67675;SDS011;54456;48.436;10.028;2023-12-07T08:13:53;27.95;;;9.80;;
67675;SDS011;54456;48.436;10.028;2023-12-07T08:15:24;24.37;;;9.17;;
67675;SDS011;54456;48.436;10.028;2023-12-07T08:16:54;29.87;;;10.07;;
67675;SDS011;54456;48.436;10.028;2023-12-07T08:18:25;25.77;;;9.30;;
67675;SDS011;54456;48.436;10.028;2023-12-07T08:19:56;23.70;;;7.65;;
67675;SDS011;54456;48.436;10.028;2023-12-07T08:21:29;26.65;;;9.40;;
67675;SDS011;54456;48.436;10.028;2023-12-07T08:22:59;20.83;;;8.02;;
67675;SDS011;54456;48.436;10.028;2023-12-07T08:24:30;23.33;;;9.27;;
67675;SDS011;54456;48.436;10.028;2023-12-07T08:26:00;27.00;;;10.13;;
67675;SDS011;54456;48.436;10.028;2023-12-07T08:27:34;22.63;;;9.18;;
67675;SDS011;54456;48.436;10.028;2023-12-07T08:29:04;25.30;;;8.38;;
67675;SDS011;54456;48.436;10.028;2023-12-07T08:30:35;24.10;;;8.75;;
67675;SDS011;54456;48.436;10.028;2023-12-07T08:32:06;23.40;;;8.00;;
67675;SDS011;54456;48.436;10.028;2023-12-07T08:33:36;23.90;;;9.30;;
67675;SDS011;54456;48.436;10.028;2023-12-07T08:35:09;26.35;;;9.35;;
67675;SDS011;54456;48.436;10.028;2023-12-07T08:36:39;22.30;;;7.57;;
67675;SDS011;54456;48.436;10.028;2023-12-07T08:38:09;20.65;;;7.15;;
67675;SDS011;54456;48.436;10.028;2023-12-07T08:39:40;21.63;;;6.53;;
67675;SDS011;54456;48.436;10.028;2023-12-07T08:41:10;16.23;;;5.77;;
67675;SDS011;54456;48.436;10.028;2023-12-07T08:42:44;13.23;;;4.77;;
67675;SDS011;54456;48.436;10.028;2023-12-07T08:44:16;16.85;;;5.55;;
67675;SDS011;54456;48.436;10.028;2023-12-07T08:45:46;14.73;;;5.93;;
67675;SDS011;54456;48.436;10.028;2023-12-07T08:47:17;18.67;;;6.17;;
67675;SDS011;54456;48.436;10.028;2023-12-07T08:48:47;16.43;;;5.87;;
67675;SDS011;54456;48.436;10.028;2023-12-07T08:50:17;16.50;;;5.60;;
67675;SDS011;54456;48.436;10.028;2023-12-07T08:51:48;15.27;;;6.25;;
67675;SDS011;54456;48.436;10.028;2023-12-07T08:53:18;18.53;;;6.30;;
67675;SDS011;54456;48.436;10.028;2023-12-07T08:54:48;17.63;;;7.00;;
67675;SDS011;54456;48.436;10.028;2023-12-07T08:56:19;19.92;;;7.38;;
67675;SDS011;54456;48.436;10.028;2023-12-07T08:57:49;17.95;;;6.63;;
67675;SDS011;54456;48.436;10.028;2023-12-07T08:59:19;19.07;;;6.43;;
67675;SDS011;54456;48.436;10.028;2023-12-07T09:00:50;15.00;;;6.25;;
67675;SDS011;54456;48.436;10.028;2023-12-07T09:02:22;20.65;;;6.65;;
67675;SDS011;54456;48.436;10.028;2023-12-07T09:03:52;16.95;;;6.18;;
67675;SDS011;54456;48.436;10.028;2023-12-07T09:05:23;14.55;;;5.90;;
67675;SDS011;54456;48.436;10.028;2023-12-07T09:06:53;16.98;;;6.28;;
67675;SDS011;54456;48.436;10.028;2023-12-07T09:08:23;16.30;;;6.43;;
67675;SDS011;54456;48.436;10.028;2023-12-07T09:09:54;21.23;;;6.85;;
67675;SDS011;54456;48.436;10.028;2023-12-07T09:11:24;16.67;;;5.83;;
67675;SDS011;54456;48.436;10.028;2023-12-07T09:12:55;17.58;;;5.43;;
67675;SDS011;54456;48.436;10.028;2023-12-07T09:14:25;16.38;;;6.32;;
67675;SDS011;54456;48.436;10.028;2023-12-07T09:15:56;14.27;;;6.05;;
67675;SDS011;54456;48.436;10.028;2023-12-07T09:17:26;17.57;;;5.90;;
67675;SDS011;54456;48.436;10.028;2023-12-07T09:18:57;17.67;;;6.45;;
67675;SDS011;54456;48.436;10.028;2023-12-07T09:20:28;16.93;;;6.00;;
67675;SDS011;54456;48.436;10.028;2023-12-07T09:21:58;17.60;;;6.10;;
67675;SDS011;54456;48.436;10.028;2023-12-07T09:23:31;15.77;;;6.28;;
67675;SDS011;54456;48.436;10.028;2023-12-07T09:25:01;14.07;;;5.80;;
67675;SDS011;54456;48.436;10.028;2023-12-07T09:26:32;18.52;;;6.60;;
67675;SDS011;54456;48.436;10.028;2023-12-07T09:28:03;15.27;;;6.00;;
67675;SDS011;54456;48.436;10.028;2023-12-07T09:29:34;15.98;;;6.38;;
67675;SDS011;54456;48.436;10.028;2023-12-07T09:31:04;15.03;;;5.90;;
67675;SDS011;54456;48.436;10.028;2023-12-07T09:32:35;14.18;;;5.90;;
67675;SDS011;54456;48.436;10.028;2023-12-07T09:34:08;16.42;;;6.40;;
67675;SDS011;54456;48.436;10.028;2023-12-07T09:35:38;13.18;;;6.22;;
67675;SDS011;54456;48.436;10.028;2023-12-07T09:37:09;14.40;;;6.00;;
67675;SDS011;54456;48.436;10.028;2023-12-07T09:38:39;15.25;;;5.82;;
67675;SDS011;54456;48.436;10.028;2023-12-07T09:40:16;16.27;;;6.17;;
67675;SDS011;54456;48.436;10.028;2023-12-07T09:41:50;18.35;;;6.55;;
67675;SDS011;54456;48.436;10.028;2023-12-07T09:43:20;15.67;;;6.30;;
67675;SDS011;54456;48.436;10.028;2023-12-07T09:44:50;17.70;;;7.30;;
67675;SDS011;54456;48.436;10.028;2023-12-07T09:46:20;16.10;;;6.97;;
67675;SDS011;54456;48.436;10.028;2023-12-07T09:47:52;16.42;;;6.30;;
67675;SDS011;54456;48.436;10.028;2023-12-07T09:49:23;15.80;;;6.75;;
67675;SDS011;54456;48.436;10.028;2023-12-07T09:50:54;16.00;;;6.18;;
67675;SDS011;54456;48.436;10.028;2023-12-07T09:52:25;14.02;;;6.18;;
67675;SDS011;54456;48.436;10.028;2023-12-07T09:53:56;16.17;;;6.33;;
67675;SDS011;54456;48.436;10.028;2023-12-07T09:55:26;15.83;;;5.80;;
67675;SDS011;54456;48.436;10.028;2023-12-07T09:56:56;13.50;;;5.63;;
67675;SDS011;54456;48.436;10.028;2023-12-07T09:58:27;13.25;;;6.32;;
67675;SDS011;54456;48.436;10.028;2023-12-07T09:59:57;16.07;;;6.30;;
67675;SDS011;54456;48.436;10.028;2023-12-07T10:01:28;15.10;;;6.83;;
67675;SDS011;54456;48.436;10.028;2023-12-07T10:03:00;15.82;;;6.68;;
67675;SDS011;54456;48.436;10.028;2023-12-07T10:04:30;17.03;;;6.77;;
67675;SDS011;54456;48.436;10.028;2023-12-07T10:06:01;18.33;;;6.75;;
67675;SDS011;54456;48.436;10.028;2023-12-07T10:07:34;18.52;;;8.27;;
67675;SDS011;54456;48.436;10.028;2023-12-07T10:09:06;21.08;;;7.32;;
67675;SDS011;54456;48.436;10.028;2023-12-07T10:10:36;21.70;;;7.97;;
67675;SDS011;54456;48.436;10.028;2023-12-07T10:12:07;19.60;;;7.33;;
67675;SDS011;54456;48.436;10.028;2023-12-07T10:13:38;21.67;;;8.45;;
67675;SDS011;54456;48.436;10.028;2023-12-07T10:15:15;19.63;;;7.55;;
67675;SDS011;54456;48.436;10.028;2023-12-07T10:16:52;22.80;;;7.38;;
67675;SDS011;54456;48.436;10.028;2023-12-07T10:18:25;24.17;;;7.65;;
67675;SDS011;54456;48.436;10.028;2023-12-07T10:20:08;23.47;;;8.00;;
67675;SDS011;54456;48.436;10.028;2023-12-07T10:21:38;22.33;;;7.55;;
67675;SDS011;54456;48.436;10.028;2023-12-07T10:23:09;21.50;;;8.02;;
67675;SDS011;54456;48.436;10.028;2023-12-07T10:24:40;24.45;;;9.52;;
67675;SDS011;54456;48.436;10.028;2023-12-07T10:26:11;19.23;;;6.82;;
67675;SDS011;54456;48.436;10.028;2023-12-07T10:27:42;21.23;;;7.43;;
67675;SDS011;54456;48.436;10.028;2023-12-07T10:29:14;24.08;;;8.43;;
67675;SDS011;54456;48.436;10.028;2023-12-07T10:30:44;20.98;;;7.85;;
67675;SDS011;54456;48.436;10.028;2023-12-07T10:32:15;18.15;;;6.78;;
67675;SDS011;54456;48.436;10.028;2023-12-07T10:33:49;20.60;;;7.50;;
67675;SDS011;54456;48.436;10.028;2023-12-07T10:35:19;22.42;;;8.52;;
67675;SDS011;54456;48.436;10.028;2023-12-07T10:36:52;23.00;;;8.60;;
67675;SDS011;54456;48.436;10.028;2023-12-07T10:38:23;24.02;;;7.97;;
67675;SDS011;54456;48.436;10.028;2023-12-07T10:39:53;20.93;;;7.77;;
67675;SDS011;54456;48.436;10.028;2023-12-07T10:41:24;25.17;;;8.90;;
67675;SDS011;54456;48.436;10.028;2023-12-07T10:42:56;21.23;;;8.35;;
67675;SDS011;54456;48.436;10.028;2023-12-07T10:44:27;21.38;;;7.57;;
67675;SDS011;54456;48.436;10.028;2023-12-07T10:45:58;26.70;;;8.95;;
67675;SDS011;54456;48.436;10.028;2023-12-07T10:47:28;24.25;;;8.73;;
67675;SDS011;54456;48.436;10.028;2023-12-07T10:48:59;23.02;;;8.35;;
67675;SDS011;54456;48.436;10.028;2023-12-07T10:50:31;22.77;;;8.52;;
67675;SDS011;54456;48.436;10.028;2023-12-07T10:52:06;19.98;;;7.47;;
67675;SDS011;54456;48.436;10.028;2023-12-07T10:53:38;23.35;;;8.82;;
67675;SDS011;54456;48.436;10.028;2023-12-07T10:55:16;21.17;;;7.93;;
67675;SDS011;54456;48.436;10.028;2023-12-07T10:56:48;22.73;;;8.15;;
67675;SDS011;54456;48.436;10.028;2023-12-07T10:58:22;21.50;;;8.40;;
67675;SDS011;54456;48.436;10.028;2023-12-07T10:59:55;17.95;;;7.90;;
67675;SDS011;54456;48.436;10.028;2023-12-07T11:01:27;19.95;;;7.82;;
67675;SDS011;54456;48.436;10.028;2023-12-07T11:02:58;24.27;;;8.63;;
67675;SDS011;54456;48.436;10.028;2023-12-07T11:04:28;22.67;;;8.50;;
67675;SDS011;54456;48.436;10.028;2023-12-07T11:05:59;20.83;;;7.53;;
67675;SDS011;54456;48.436;10.028;2023-12-07T11:07:40;22.10;;;8.25;;
67675;SDS011;54456;48.436;10.028;2023-12-07T11:09:19;20.30;;;7.60;;
67675;SDS011;54456;48.436;10.028;2023-12-07T11:10:58;20.38;;;7.07;;
67675;SDS011;54456;48.436;10.028;2023-12-07T11:14:29;20.85;;;7.35;;
67675;SDS011;54456;48.436;10.028;2023-12-07T11:16:00;19.15;;;7.65;;
67675;SDS011;54456;48.436;10.028;2023-12-07T11:17:41;22.33;;;7.88;;
67675;SDS011;54456;48.436;10.028;2023-12-07T11:21:02;19.40;;;7.65;;
67675;SDS011;54456;48.436;10.028;2023-12-07T11:22:32;19.05;;;7.90;;
67675;SDS011;54456;48.436;10.028;2023-12-07T11:24:03;18.10;;;7.50;;
67675;SDS011;54456;48.436;10.028;2023-12-07T11:25:34;17.33;;;7.00;;
67675;SDS011;54456;48.436;10.028;2023-12-07T11:27:04;18.02;;;6.72;;
67675;SDS011;54456;48.436;10.028;2023-12-07T11:28:35;12.98;;;5.38;;
67675;SDS011;54456;48.436;10.028;2023-12-07T11:30:07;13.02;;;5.30;;
67675;SDS011;54456;48.436;10.028;2023-12-07T11:31:37;17.92;;;6.40;;
67675;SDS011;54456;48.436;10.028;2023-12-07T11:33:08;18.38;;;7.30;;
67675;SDS011;54456;48.436;10.028;2023-12-07T11:34:40;19.27;;;7.32;;
67675;SDS011;54456;48.436;10.028;2023-12-07T11:36:11;18.00;;;7.03;;
67675;SDS011;54456;48.436;10.028;2023-12-07T11:38:24;16.38;;;6.78;;
67675;SDS011;54456;48.436;10.028;2023-12-07T11:39:38;17.27;;;6.57;;
67675;SDS011;54456;48.436;10.028;2023-12-07T11:41:11;17.52;;;7.05;;
67675;SDS011;54456;48.436;10.028;2023-12-07T11:42:42;18.00;;;6.60;;
67675;SDS011;54456;48.436;10.028;2023-12-07T11:44:13;18.35;;;6.70;;
67675;SDS011;54456;48.436;10.028;2023-12-07T11:45:47;15.73;;;6.13;;
67675;SDS011;54456;48.436;10.028;2023-12-07T11:47:21;13.98;;;5.60;;
67675;SDS011;54456;48.436;10.028;2023-12-07T11:48:52;14.93;;;5.60;;
67675;SDS011;54456;48.436;10.028;2023-12-07T11:50:22;13.45;;;5.22;;
67675;SDS011;54456;48.436;10.028;2023-12-07T11:51:52;14.40;;;5.13;;
67675;SDS011;54456;48.436;10.028;2023-12-07T11:53:27;12.27;;;4.45;;
67675;SDS011;54456;48.436;10.028;2023-12-07T11:54:59;11.80;;;3.63;;
67675;SDS011;54456;48.436;10.028;2023-12-07T11:56:30;15.43;;;5.37;;
67675;SDS011;54456;48.436;10.028;2023-12-07T11:58:01;18.80;;;7.07;;
67675;SDS011;54456;48.436;10.028;2023-12-07T11:59:31;18.20;;;6.00;;
67675;SDS011;54456;48.436;10.028;2023-12-07T12:01:01;16.90;;;5.90;;
67675;SDS011;54456;48.436;10.028;2023-12-07T12:02:32;14.75;;;5.72;;
67675;SDS011;54456;48.436;10.028;2023-12-07T12:04:06;16.48;;;5.90;;
67675;SDS011;54456;48.436;10.028;2023-12-07T12:05:38;18.17;;;6.05;;
67675;SDS011;54456;48.436;10.028;2023-12-07T12:07:10;16.02;;;5.80;;
67675;SDS011;54456;48.436;10.028;2023-12-07T12:08:40;16.75;;;5.00;;
67675;SDS011;54456;48.436;10.028;2023-12-07T12:10:12;10.50;;;4.22;;
67675;SDS011;54456;48.436;10.028;2023-12-07T12:11:46;14.30;;;5.25;;
67675;SDS011;54456;48.436;10.028;2023-12-07T12:14:47;12.57;;;4.60;;
67675;SDS011;54456;48.436;10.028;2023-12-07T12:16:18;11.52;;;4.88;;
67675;SDS011;54456;48.436;10.028;2023-12-07T12:17:48;12.85;;;4.07;;
67675;SDS011;54456;48.436;10.028;2023-12-07T12:19:18;10.70;;;3.43;;
67675;SDS011;54456;48.436;10.028;2023-12-07T12:20:50;12.20;;;5.10;;
67675;SDS011;54456;48.436;10.028;2023-12-07T12:22:21;14.40;;;4.97;;
67675;SDS011;54456;48.436;10.028;2023-12-07T12:23:51;12.93;;;4.30;;
67675;SDS011;54456;48.436;10.028;2023-12-07T12:25:26;13.23;;;4.82;;
67675;SDS011;54456;48.436;10.028;2023-12-07T12:27:00;13.32;;;5.07;;
67675;SDS011;54456;48.436;10.028;2023-12-07T12:28:31;13.27;;;4.63;;
67675;SDS011;54456;48.436;10.028;2023-12-07T12:30:02;11.88;;;4.82;;
67675;SDS011;54456;48.436;10.028;2023-12-07T12:31:34;12.50;;;4.20;;
67675;SDS011;54456;48.436;10.028;2023-12-07T12:33:05;12.32;;;4.35;;
67675;SDS011;54456;48.436;10.028;2023-12-07T12:34:35;14.40;;;5.80;;
67675;SDS011;54456;48.436;10.028;2023-12-07T12:36:06;15.43;;;4.95;;
67675;SDS011;54456;48.436;10.028;2023-12-07T12:37:44;14.60;;;5.10;;
67675;SDS011;54456;48.436;10.028;2023-12-07T12:39:14;13.20;;;5.95;;
67675;SDS011;54456;48.436;10.028;2023-12-07T12:40:45;12.00;;;4.47;;
67675;SDS011;54456;48.436;10.028;2023-12-07T12:42:15;12.50;;;4.80;;
67675;SDS011;54456;48.436;10.028;2023-12-07T12:43:45;15.45;;;5.00;;